sensor_id;sensor_type;location;lat;lon;timestamp;temperature;humidity
46720;DHT22;32452;51.382;-0.002;2023-03-02T00:00:39;4.70;95.10
46720;DHT22;32452;51.382;-0.002;2023-03-02T00:03:25;4.60;95.00
46720;DHT22;32452;51.382;-0.002;2023-03-02T00:06:11;4.60;95.00
46720;DHT22;32452;51.382;-0.002;2023-03-02T00:08:59;4.60;95.00
46720;DHT22;32452;51.382;-0.002;2023-03-02T00:11:44;4.50;94.90
46720;DHT22;32452;51.382;-0.002;2023-03-02T00:14:30;4.50;94.90
46720;DHT22;32452;51.382;-0.002;2023-03-02T00:17:15;4.40;95.00
46720;DHT22;32452;51.382;-0.002;2023-03-02T00:20:01;4.40;94.90
46720;DHT22;32452;51.382;-0.002;2023-03-02T00:22:56;4.40;94.90
46720;DHT22;32452;51.382;-0.002;2023-03-02T00:25:42;4.30;94.90
46720;DHT22;32452;51.382;-0.002;2023-03-02T00:28:27;4.30;95.00
46720;DHT22;32452;51.382;-0.002;2023-03-02T00:31:13;4.30;95.00
46720;DHT22;32452;51.382;-0.002;2023-03-02T00:33:59;4.20;95.00
46720;DHT22;32452;51.382;-0.002;2023-03-02T00:36:45;4.20;95.10
46720;DHT22;32452;51.382;-0.002;2023-03-02T00:39:33;4.10;95.10
46720;DHT22;32452;51.382;-0.002;2023-03-02T00:42:19;4.10;95.20
46720;DHT22;32452;51.382;-0.002;2023-03-02T00:45:06;4.10;95.30
46720;DHT22;32452;51.382;-0.002;2023-03-02T00:47:52;4.10;95.40
46720;DHT22;32452;51.382;-0.002;2023-03-02T00:50:38;4.10;95.50
46720;DHT22;32452;51.382;-0.002;2023-03-02T00:53:25;4.10;95.60
46720;DHT22;32452;51.382;-0.002;2023-03-02T00:56:12;4.20;95.70
46720;DHT22;32452;51.382;-0.002;2023-03-02T00:58:57;4.20;95.70
46720;DHT22;32452;51.382;-0.002;2023-03-02T01:01:48;4.20;95.70
46720;DHT22;32452;51.382;-0.002;2023-03-02T01:04:42;4.30;95.80
46720;DHT22;32452;51.382;-0.002;2023-03-02T01:07:29;4.30;95.80
46720;DHT22;32452;51.382;-0.002;2023-03-02T01:10:14;4.20;95.80
46720;DHT22;32452;51.382;-0.002;2023-03-02T01:13:00;4.30;95.90
46720;DHT22;32452;51.382;-0.002;2023-03-02T01:15:46;4.30;96.00
46720;DHT22;32452;51.382;-0.002;2023-03-02T01:18:32;4.30;96.00
46720;DHT22;32452;51.382;-0.002;2023-03-02T01:21:18;4.30;96.10
46720;DHT22;32452;51.382;-0.002;2023-03-02T01:24:04;4.30;96.10
46720;DHT22;32452;51.382;-0.002;2023-03-02T01:26:50;4.30;96.20
46720;DHT22;32452;51.382;-0.002;2023-03-02T01:29:36;4.30;96.20
46720;DHT22;32452;51.382;-0.002;2023-03-02T01:32:22;4.30;96.30
46720;DHT22;32452;51.382;-0.002;2023-03-02T01:35:08;4.30;96.30
46720;DHT22;32452;51.382;-0.002;2023-03-02T01:37:53;4.30;96.40
46720;DHT22;32452;51.382;-0.002;2023-03-02T01:40:39;4.30;96.40
46720;DHT22;32452;51.382;-0.002;2023-03-02T01:43:25;4.30;96.40
46720;DHT22;32452;51.382;-0.002;2023-03-02T01:46:16;4.30;96.40
46720;DHT22;32452;51.382;-0.002;2023-03-02T01:49:06;4.30;96.50
46720;DHT22;32452;51.382;-0.002;2023-03-02T01:51:52;4.30;96.50
46720;DHT22;32452;51.382;-0.002;2023-03-02T01:54:39;4.30;96.60
46720;DHT22;32452;51.382;-0.002;2023-03-02T01:57:30;4.30;96.60
46720;DHT22;32452;51.382;-0.002;2023-03-02T02:00:23;4.30;96.60
46720;DHT22;32452;51.382;-0.002;2023-03-02T02:03:13;4.30;96.60
46720;DHT22;32452;51.382;-0.002;2023-03-02T02:09:12;4.20;96.60
46720;DHT22;32452;51.382;-0.002;2023-03-02T02:11:58;4.20;96.70
46720;DHT22;32452;51.382;-0.002;2023-03-02T02:14:44;4.20;96.70
46720;DHT22;32452;51.382;-0.002;2023-03-02T02:17:30;4.20;96.80
46720;DHT22;32452;51.382;-0.002;2023-03-02T02:20:32;4.20;96.80
46720;DHT22;32452;51.382;-0.002;2023-03-02T02:23:31;4.20;96.90
46720;DHT22;32452;51.382;-0.002;2023-03-02T02:26:25;4.20;96.90
46720;DHT22;32452;51.382;-0.002;2023-03-02T02:29:31;4.20;96.90
46720;DHT22;32452;51.382;-0.002;2023-03-02T02:32:23;4.30;97.00
46720;DHT22;32452;51.382;-0.002;2023-03-02T02:35:15;4.20;97.00
46720;DHT22;32452;51.382;-0.002;2023-03-02T02:38:04;4.20;96.90
46720;DHT22;32452;51.382;-0.002;2023-03-02T02:40:57;4.20;96.90
46720;DHT22;32452;51.382;-0.002;2023-03-02T02:43:43;4.20;96.90
46720;DHT22;32452;51.382;-0.002;2023-03-02T02:46:30;4.10;96.80
46720;DHT22;32452;51.382;-0.002;2023-03-02T02:49:30;4.10;96.80
46720;DHT22;32452;51.382;-0.002;2023-03-02T02:52:19;4.00;96.80
46720;DHT22;32452;51.382;-0.002;2023-03-02T02:55:05;4.00;96.80
46720;DHT22;32452;51.382;-0.002;2023-03-02T02:57:53;3.90;96.80
46720;DHT22;32452;51.382;-0.002;2023-03-02T03:00:40;3.90;96.90
46720;DHT22;32452;51.382;-0.002;2023-03-02T03:03:31;3.80;96.90
46720;DHT22;32452;51.382;-0.002;2023-03-02T03:06:21;3.80;97.00
46720;DHT22;32452;51.382;-0.002;2023-03-02T03:09:11;3.80;97.00
46720;DHT22;32452;51.382;-0.002;2023-03-02T03:14:45;3.70;96.90
46720;DHT22;32452;51.382;-0.002;2023-03-02T03:17:32;3.60;96.90
46720;DHT22;32452;51.382;-0.002;2023-03-02T03:20:18;3.50;96.90
46720;DHT22;32452;51.382;-0.002;2023-03-02T03:23:03;3.50;97.00
46720;DHT22;32452;51.382;-0.002;2023-03-02T03:25:49;3.40;97.00
46720;DHT22;32452;51.382;-0.002;2023-03-02T03:28:34;3.40;97.10
46720;DHT22;32452;51.382;-0.002;2023-03-02T03:31:20;3.30;97.10
46720;DHT22;32452;51.382;-0.002;2023-03-02T03:34:05;3.30;97.20
46720;DHT22;32452;51.382;-0.002;2023-03-02T03:36:51;3.20;97.20
46720;DHT22;32452;51.382;-0.002;2023-03-02T03:39:37;3.20;97.30
46720;DHT22;32452;51.382;-0.002;2023-03-02T03:42:22;3.10;97.40
46720;DHT22;32452;51.382;-0.002;2023-03-02T03:45:08;3.10;97.50
46720;DHT22;32452;51.382;-0.002;2023-03-02T03:47:54;3.10;97.50
46720;DHT22;32452;51.382;-0.002;2023-03-02T03:50:39;3.00;97.50
46720;DHT22;32452;51.382;-0.002;2023-03-02T03:53:25;3.00;97.60
46720;DHT22;32452;51.382;-0.002;2023-03-02T03:56:11;3.00;97.60
46720;DHT22;32452;51.382;-0.002;2023-03-02T03:58:57;2.90;97.70
46720;DHT22;32452;51.382;-0.002;2023-03-02T04:01:52;2.90;97.80
46720;DHT22;32452;51.382;-0.002;2023-03-02T04:04:38;2.80;97.80
46720;DHT22;32452;51.382;-0.002;2023-03-02T04:07:23;2.80;97.90
46720;DHT22;32452;51.382;-0.002;2023-03-02T04:10:10;2.80;98.00
46720;DHT22;32452;51.382;-0.002;2023-03-02T04:12:56;2.80;98.10
46720;DHT22;32452;51.382;-0.002;2023-03-02T04:15:42;2.70;98.10
46720;DHT22;32452;51.382;-0.002;2023-03-02T04:18:31;2.70;98.30
46720;DHT22;32452;51.382;-0.002;2023-03-02T04:21:17;2.70;98.20
46720;DHT22;32452;51.382;-0.002;2023-03-02T04:24:02;2.60;98.20
46720;DHT22;32452;51.382;-0.002;2023-03-02T04:26:49;2.60;98.20
46720;DHT22;32452;51.382;-0.002;2023-03-02T04:29:35;2.60;98.20
46720;DHT22;32452;51.382;-0.002;2023-03-02T04:32:21;2.50;98.20
46720;DHT22;32452;51.382;-0.002;2023-03-02T04:35:07;2.40;98.30
46720;DHT22;32452;51.382;-0.002;2023-03-02T04:37:52;2.40;98.40
46720;DHT22;32452;51.382;-0.002;2023-03-02T04:40:38;2.40;98.50
46720;DHT22;32452;51.382;-0.002;2023-03-02T04:43:24;2.40;98.50
46720;DHT22;32452;51.382;-0.002;2023-03-02T04:46:22;2.30;98.60
46720;DHT22;32452;51.382;-0.002;2023-03-02T04:49:08;2.30;98.70
46720;DHT22;32452;51.382;-0.002;2023-03-02T04:51:53;2.30;98.80
46720;DHT22;32452;51.382;-0.002;2023-03-02T04:54:38;2.30;98.80
46720;DHT22;32452;51.382;-0.002;2023-03-02T04:57:25;2.20;98.90
46720;DHT22;32452;51.382;-0.002;2023-03-02T05:00:11;2.20;98.90
46720;DHT22;32452;51.382;-0.002;2023-03-02T05:02:57;2.20;99.10
46720;DHT22;32452;51.382;-0.002;2023-03-02T05:05:43;2.20;99.10
46720;DHT22;32452;51.382;-0.002;2023-03-02T05:08:29;2.20;99.20
46720;DHT22;32452;51.382;-0.002;2023-03-02T05:11:16;2.10;99.20
46720;DHT22;32452;51.382;-0.002;2023-03-02T05:14:13;2.10;99.30
46720;DHT22;32452;51.382;-0.002;2023-03-02T05:16:59;2.10;99.40
46720;DHT22;32452;51.382;-0.002;2023-03-02T05:19:45;2.10;99.50
46720;DHT22;32452;51.382;-0.002;2023-03-02T05:22:30;2.00;99.50
46720;DHT22;32452;51.382;-0.002;2023-03-02T05:25:16;2.00;99.60
46720;DHT22;32452;51.382;-0.002;2023-03-02T05:28:02;2.10;99.60
46720;DHT22;32452;51.382;-0.002;2023-03-02T05:30:48;2.00;99.70
46720;DHT22;32452;51.382;-0.002;2023-03-02T05:33:33;2.00;99.70
46720;DHT22;32452;51.382;-0.002;2023-03-02T05:36:19;1.90;99.70
46720;DHT22;32452;51.382;-0.002;2023-03-02T05:39:08;1.90;99.80
46720;DHT22;32452;51.382;-0.002;2023-03-02T05:41:53;1.90;99.90
46720;DHT22;32452;51.382;-0.002;2023-03-02T05:44:39;1.90;99.90
46720;DHT22;32452;51.382;-0.002;2023-03-02T05:47:24;1.90;99.90
46720;DHT22;32452;51.382;-0.002;2023-03-02T05:50:10;1.90;99.90
46720;DHT22;32452;51.382;-0.002;2023-03-02T05:52:56;1.80;99.90
46720;DHT22;32452;51.382;-0.002;2023-03-02T05:55:42;1.80;99.90
46720;DHT22;32452;51.382;-0.002;2023-03-02T05:58:28;1.80;99.90
46720;DHT22;32452;51.382;-0.002;2023-03-02T06:01:13;1.70;99.90
46720;DHT22;32452;51.382;-0.002;2023-03-02T06:03:59;1.70;99.90
46720;DHT22;32452;51.382;-0.002;2023-03-02T06:06:45;1.70;99.90
46720;DHT22;32452;51.382;-0.002;2023-03-02T06:09:31;1.70;99.90
46720;DHT22;32452;51.382;-0.002;2023-03-02T06:12:16;1.60;99.90
46720;DHT22;32452;51.382;-0.002;2023-03-02T06:15:05;1.60;99.90
46720;DHT22;32452;51.382;-0.002;2023-03-02T06:17:51;1.50;99.80
46720;DHT22;32452;51.382;-0.002;2023-03-02T06:20:37;1.40;99.80
46720;DHT22;32452;51.382;-0.002;2023-03-02T06:23:22;1.40;99.80
46720;DHT22;32452;51.382;-0.002;2023-03-02T06:26:09;1.30;99.80
46720;DHT22;32452;51.382;-0.002;2023-03-02T06:28:56;1.30;99.80
46720;DHT22;32452;51.382;-0.002;2023-03-02T06:31:42;1.20;99.80
46720;DHT22;32452;51.382;-0.002;2023-03-02T06:34:28;1.20;99.80
46720;DHT22;32452;51.382;-0.002;2023-03-02T06:37:14;1.20;99.80
46720;DHT22;32452;51.382;-0.002;2023-03-02T06:39:59;1.10;99.90
46720;DHT22;32452;51.382;-0.002;2023-03-02T06:42:45;1.10;99.90
46720;DHT22;32452;51.382;-0.002;2023-03-02T06:45:30;1.10;99.90
46720;DHT22;32452;51.382;-0.002;2023-03-02T06:48:18;1.10;99.90
46720;DHT22;32452;51.382;-0.002;2023-03-02T06:51:04;1.10;99.90
46720;DHT22;32452;51.382;-0.002;2023-03-02T06:53:50;1.00;99.90
46720;DHT22;32452;51.382;-0.002;2023-03-02T06:56:36;1.00;99.90
46720;DHT22;32452;51.382;-0.002;2023-03-02T06:59:33;1.00;99.90
46720;DHT22;32452;51.382;-0.002;2023-03-02T07:02:19;1.00;99.90
46720;DHT22;32452;51.382;-0.002;2023-03-02T07:05:05;1.00;99.90
46720;DHT22;32452;51.382;-0.002;2023-03-02T07:07:51;1.10;99.90
46720;DHT22;32452;51.382;-0.002;2023-03-02T07:10:37;1.10;99.90
46720;DHT22;32452;51.382;-0.002;2023-03-02T07:13:22;1.20;99.90
46720;DHT22;32452;51.382;-0.002;2023-03-02T07:16:12;1.30;99.90
46720;DHT22;32452;51.382;-0.002;2023-03-02T07:18:59;1.40;99.90
46720;DHT22;32452;51.382;-0.002;2023-03-02T07:21:44;1.40;99.90
46720;DHT22;32452;51.382;-0.002;2023-03-02T07:24:30;1.50;99.90
46720;DHT22;32452;51.382;-0.002;2023-03-02T07:27:16;1.60;99.90
46720;DHT22;32452;51.382;-0.002;2023-03-02T07:30:01;1.70;99.90
46720;DHT22;32452;51.382;-0.002;2023-03-02T07:32:48;1.80;99.90
46720;DHT22;32452;51.382;-0.002;2023-03-02T07:35:34;1.90;99.90
46720;DHT22;32452;51.382;-0.002;2023-03-02T07:38:19;2.00;99.90
46720;DHT22;32452;51.382;-0.002;2023-03-02T07:41:06;2.10;99.90
46720;DHT22;32452;51.382;-0.002;2023-03-02T07:43:52;2.20;99.90
46720;DHT22;32452;51.382;-0.002;2023-03-02T07:46:37;2.40;99.90
46720;DHT22;32452;51.382;-0.002;2023-03-02T07:49:23;2.50;99.90
46720;DHT22;32452;51.382;-0.002;2023-03-02T07:52:09;2.60;99.90
46720;DHT22;32452;51.382;-0.002;2023-03-02T07:54:54;2.70;99.90
46720;DHT22;32452;51.382;-0.002;2023-03-02T07:57:40;2.80;99.90
46720;DHT22;32452;51.382;-0.002;2023-03-02T08:00:26;2.90;99.90
46720;DHT22;32452;51.382;-0.002;2023-03-02T08:03:11;3.00;99.90
46720;DHT22;32452;51.382;-0.002;2023-03-02T08:05:57;3.10;99.90
46720;DHT22;32452;51.382;-0.002;2023-03-02T08:08:42;3.30;99.90
46720;DHT22;32452;51.382;-0.002;2023-03-02T08:11:28;3.40;99.90
46720;DHT22;32452;51.382;-0.002;2023-03-02T08:14:14;3.50;99.90
46720;DHT22;32452;51.382;-0.002;2023-03-02T08:16:59;3.70;99.90
46720;DHT22;32452;51.382;-0.002;2023-03-02T08:19:45;3.90;99.90
46720;DHT22;32452;51.382;-0.002;2023-03-02T08:22:31;4.00;99.90
46720;DHT22;32452;51.382;-0.002;2023-03-02T08:25:17;4.20;99.90
46720;DHT22;32452;51.382;-0.002;2023-03-02T08:28:03;4.30;99.90
46720;DHT22;32452;51.382;-0.002;2023-03-02T08:30:59;4.50;99.90
46720;DHT22;32452;51.382;-0.002;2023-03-02T08:33:46;4.60;99.90
46720;DHT22;32452;51.382;-0.002;2023-03-02T08:36:31;4.90;99.90
46720;DHT22;32452;51.382;-0.002;2023-03-02T08:56:51;5.20;99.90
46720;DHT22;32452;51.382;-0.002;2023-03-02T08:59:37;5.80;96.40
46720;DHT22;32452;51.382;-0.002;2023-03-02T09:02:23;5.70;97.20
46720;DHT22;32452;51.382;-0.002;2023-03-02T09:05:08;5.70;97.70
46720;DHT22;32452;51.382;-0.002;2023-03-02T09:07:54;5.70;97.70
46720;DHT22;32452;51.382;-0.002;2023-03-02T09:10:40;5.80;98.10
46720;DHT22;32452;51.382;-0.002;2023-03-02T09:13:25;6.00;98.40
46720;DHT22;32452;51.382;-0.002;2023-03-02T09:16:12;6.20;98.20
46720;DHT22;32452;51.382;-0.002;2023-03-02T09:18:58;6.20;97.90
46720;DHT22;32452;51.382;-0.002;2023-03-02T09:21:43;6.30;97.70
46720;DHT22;32452;51.382;-0.002;2023-03-02T09:24:29;6.30;97.50
46720;DHT22;32452;51.382;-0.002;2023-03-02T09:27:14;6.20;97.40
46720;DHT22;32452;51.382;-0.002;2023-03-02T09:30:00;6.30;97.80
46720;DHT22;32452;51.382;-0.002;2023-03-02T09:32:46;6.50;97.70
46720;DHT22;32452;51.382;-0.002;2023-03-02T09:35:33;6.70;97.50
46720;DHT22;32452;51.382;-0.002;2023-03-02T09:38:19;7.10;97.70
46720;DHT22;32452;51.382;-0.002;2023-03-02T09:44:12;8.20;96.80
46720;DHT22;32452;51.382;-0.002;2023-03-02T09:47:15;8.70;95.90
46720;DHT22;32452;51.382;-0.002;2023-03-02T09:53:17;10.00;93.10
46720;DHT22;32452;51.382;-0.002;2023-03-02T09:56:13;10.10;91.50
46720;DHT22;32452;51.382;-0.002;2023-03-02T09:59:09;9.90;90.20
46720;DHT22;32452;51.382;-0.002;2023-03-02T10:05:30;10.30;90.40
46720;DHT22;32452;51.382;-0.002;2023-03-02T10:08:26;11.10;88.40
46720;DHT22;32452;51.382;-0.002;2023-03-02T10:11:25;11.40;84.70
46720;DHT22;32452;51.382;-0.002;2023-03-02T10:14:37;11.60;81.70
46720;DHT22;32452;51.382;-0.002;2023-03-02T10:26:53;10.10;78.50
46720;DHT22;32452;51.382;-0.002;2023-03-02T10:32:52;9.40;78.60
46720;DHT22;32452;51.382;-0.002;2023-03-02T10:35:48;9.10;78.70
46720;DHT22;32452;51.382;-0.002;2023-03-02T10:38:34;9.00;79.30
46720;DHT22;32452;51.382;-0.002;2023-03-02T10:41:37;8.90;79.00
46720;DHT22;32452;51.382;-0.002;2023-03-02T10:44:34;8.80;78.60
46720;DHT22;32452;51.382;-0.002;2023-03-02T10:47:26;8.80;79.00
46720;DHT22;32452;51.382;-0.002;2023-03-02T10:50:22;8.90;79.20
46720;DHT22;32452;51.382;-0.002;2023-03-02T10:53:16;9.10;78.80
46720;DHT22;32452;51.382;-0.002;2023-03-02T10:56:04;9.20;78.80
46720;DHT22;32452;51.382;-0.002;2023-03-02T10:58:51;9.30;78.70
46720;DHT22;32452;51.382;-0.002;2023-03-02T11:01:41;9.30;78.20
46720;DHT22;32452;51.382;-0.002;2023-03-02T11:04:30;9.30;78.00
46720;DHT22;32452;51.382;-0.002;2023-03-02T11:07:21;9.30;77.60
46720;DHT22;32452;51.382;-0.002;2023-03-02T11:10:21;9.20;77.20
46720;DHT22;32452;51.382;-0.002;2023-03-02T11:13:22;9.20;77.30
46720;DHT22;32452;51.382;-0.002;2023-03-02T11:19:27;9.30;77.50
46720;DHT22;32452;51.382;-0.002;2023-03-02T11:22:35;9.80;77.00
46720;DHT22;32452;51.382;-0.002;2023-03-02T11:25:29;10.40;77.20
46720;DHT22;32452;51.382;-0.002;2023-03-02T11:31:41;11.10;74.20
46720;DHT22;32452;51.382;-0.002;2023-03-02T11:34:33;11.40;73.20
46720;DHT22;32452;51.382;-0.002;2023-03-02T11:40:16;11.00;71.40
46720;DHT22;32452;51.382;-0.002;2023-03-02T11:43:03;10.80;71.70
46720;DHT22;32452;51.382;-0.002;2023-03-02T11:46:02;10.70;71.90
46720;DHT22;32452;51.382;-0.002;2023-03-02T11:49:06;10.70;71.70
46720;DHT22;32452;51.382;-0.002;2023-03-02T11:51:59;11.00;71.70
46720;DHT22;32452;51.382;-0.002;2023-03-02T11:54:51;11.60;72.20
46720;DHT22;32452;51.382;-0.002;2023-03-02T11:57:41;12.20;71.10
46720;DHT22;32452;51.382;-0.002;2023-03-02T12:00:38;12.90;70.10
46720;DHT22;32452;51.382;-0.002;2023-03-02T12:09:27;13.10;65.60
46720;DHT22;32452;51.382;-0.002;2023-03-02T12:21:06;11.80;66.00
46720;DHT22;32452;51.382;-0.002;2023-03-02T12:23:53;12.10;66.40
46720;DHT22;32452;51.382;-0.002;2023-03-02T12:26:39;12.50;66.10
46720;DHT22;32452;51.382;-0.002;2023-03-02T12:29:24;12.90;65.90
46720;DHT22;32452;51.382;-0.002;2023-03-02T12:32:25;13.40;64.80
46720;DHT22;32452;51.382;-0.002;2023-03-02T12:35:16;13.70;62.50
46720;DHT22;32452;51.382;-0.002;2023-03-02T12:38:06;13.60;61.30
46720;DHT22;32452;51.382;-0.002;2023-03-02T12:47:20;13.90;60.40
46720;DHT22;32452;51.382;-0.002;2023-03-02T12:50:23;13.90;60.00
46720;DHT22;32452;51.382;-0.002;2023-03-02T12:53:17;14.00;58.80
46720;DHT22;32452;51.382;-0.002;2023-03-02T12:56:03;14.20;58.90
46720;DHT22;32452;51.382;-0.002;2023-03-02T12:58:50;14.40;58.90
46720;DHT22;32452;51.382;-0.002;2023-03-02T13:01:36;14.80;58.20
46720;DHT22;32452;51.382;-0.002;2023-03-02T13:04:24;14.90;56.60
46720;DHT22;32452;51.382;-0.002;2023-03-02T13:07:18;15.00;55.70
46720;DHT22;32452;51.382;-0.002;2023-03-02T13:10:21;15.00;55.40
46720;DHT22;32452;51.382;-0.002;2023-03-02T13:16:17;15.30;55.80
46720;DHT22;32452;51.382;-0.002;2023-03-02T13:19:10;15.50;55.60
46720;DHT22;32452;51.382;-0.002;2023-03-02T13:21:59;15.70;55.40
46720;DHT22;32452;51.382;-0.002;2023-03-02T13:27:36;15.70;53.60
46720;DHT22;32452;51.382;-0.002;2023-03-02T13:30:26;15.40;53.60
46720;DHT22;32452;51.382;-0.002;2023-03-02T13:33:20;15.20;53.20
46720;DHT22;32452;51.382;-0.002;2023-03-02T13:36:07;15.00;52.90
46720;DHT22;32452;51.382;-0.002;2023-03-02T13:38:56;14.90;53.40
46720;DHT22;32452;51.382;-0.002;2023-03-02T13:41:51;15.00;53.40
46720;DHT22;32452;51.382;-0.002;2023-03-02T13:44:37;15.10;53.30
46720;DHT22;32452;51.382;-0.002;2023-03-02T13:47:23;15.10;53.50
46720;DHT22;32452;51.382;-0.002;2023-03-02T13:50:16;15.20;53.40
46720;DHT22;32452;51.382;-0.002;2023-03-02T13:53:03;15.40;53.00
46720;DHT22;32452;51.382;-0.002;2023-03-02T13:55:52;15.30;52.30
46720;DHT22;32452;51.382;-0.002;2023-03-02T13:58:38;15.20;52.00
46720;DHT22;32452;51.382;-0.002;2023-03-02T14:01:24;15.00;51.70
46720;DHT22;32452;51.382;-0.002;2023-03-02T14:04:28;15.00;52.00
46720;DHT22;32452;51.382;-0.002;2023-03-02T14:07:13;14.80;51.70
46720;DHT22;32452;51.382;-0.002;2023-03-02T14:09:59;14.70;52.00
46720;DHT22;32452;51.382;-0.002;2023-03-02T14:12:53;14.60;52.00
46720;DHT22;32452;51.382;-0.002;2023-03-02T14:15:42;14.50;52.50
46720;DHT22;32452;51.382;-0.002;2023-03-02T14:18:42;14.50;52.60
46720;DHT22;32452;51.382;-0.002;2023-03-02T14:21:29;14.40;52.30
46720;DHT22;32452;51.382;-0.002;2023-03-02T14:24:15;14.30;52.40
46720;DHT22;32452;51.382;-0.002;2023-03-02T14:27:01;14.10;52.50
46720;DHT22;32452;51.382;-0.002;2023-03-02T14:29:46;14.00;52.70
46720;DHT22;32452;51.382;-0.002;2023-03-02T14:32:32;13.70;52.80
46720;DHT22;32452;51.382;-0.002;2023-03-02T14:35:17;13.50;53.10
46720;DHT22;32452;51.382;-0.002;2023-03-02T14:38:03;13.30;53.30
46720;DHT22;32452;51.382;-0.002;2023-03-02T14:40:49;13.10;53.40
46720;DHT22;32452;51.382;-0.002;2023-03-02T14:43:35;12.80;53.50
46720;DHT22;32452;51.382;-0.002;2023-03-02T14:46:21;12.70;53.80
46720;DHT22;32452;51.382;-0.002;2023-03-02T14:49:06;12.60;54.10
46720;DHT22;32452;51.382;-0.002;2023-03-02T14:52:02;12.40;54.60
46720;DHT22;32452;51.382;-0.002;2023-03-02T14:54:55;12.30;55.00
46720;DHT22;32452;51.382;-0.002;2023-03-02T14:57:41;12.30;55.40
46720;DHT22;32452;51.382;-0.002;2023-03-02T15:00:28;12.30;55.60
46720;DHT22;32452;51.382;-0.002;2023-03-02T15:03:28;12.20;55.70
46720;DHT22;32452;51.382;-0.002;2023-03-02T15:06:37;12.10;55.90
46720;DHT22;32452;51.382;-0.002;2023-03-02T15:09:23;12.00;55.70
46720;DHT22;32452;51.382;-0.002;2023-03-02T15:12:09;11.90;55.70
46720;DHT22;32452;51.382;-0.002;2023-03-02T15:14:55;11.90;55.70
46720;DHT22;32452;51.382;-0.002;2023-03-02T15:17:41;11.90;55.80
46720;DHT22;32452;51.382;-0.002;2023-03-02T15:20:27;11.80;55.80
46720;DHT22;32452;51.382;-0.002;2023-03-02T15:23:14;11.70;55.90
46720;DHT22;32452;51.382;-0.002;2023-03-02T15:26:01;11.60;56.20
46720;DHT22;32452;51.382;-0.002;2023-03-02T15:28:51;11.60;56.50
46720;DHT22;32452;51.382;-0.002;2023-03-02T15:31:37;11.50;57.50
46720;DHT22;32452;51.382;-0.002;2023-03-02T15:34:23;11.40;57.00
46720;DHT22;32452;51.382;-0.002;2023-03-02T15:37:10;11.40;57.80
46720;DHT22;32452;51.382;-0.002;2023-03-02T15:39:57;11.30;57.40
46720;DHT22;32452;51.382;-0.002;2023-03-02T15:42:43;11.20;57.40
46720;DHT22;32452;51.382;-0.002;2023-03-02T15:45:29;11.10;58.20
46720;DHT22;32452;51.382;-0.002;2023-03-02T15:48:15;11.00;57.70
46720;DHT22;32452;51.382;-0.002;2023-03-02T15:51:03;10.90;57.90
46720;DHT22;32452;51.382;-0.002;2023-03-02T15:53:49;10.70;58.00
46720;DHT22;32452;51.382;-0.002;2023-03-02T15:56:34;10.70;58.30
46720;DHT22;32452;51.382;-0.002;2023-03-02T15:59:29;10.50;58.50
46720;DHT22;32452;51.382;-0.002;2023-03-02T16:02:15;10.50;58.70
46720;DHT22;32452;51.382;-0.002;2023-03-02T16:05:02;10.40;58.80
46720;DHT22;32452;51.382;-0.002;2023-03-02T16:07:47;10.30;58.70
46720;DHT22;32452;51.382;-0.002;2023-03-02T16:10:33;10.30;58.50
46720;DHT22;32452;51.382;-0.002;2023-03-02T16:13:20;10.20;58.40
46720;DHT22;32452;51.382;-0.002;2023-03-02T16:16:06;10.10;58.40
46720;DHT22;32452;51.382;-0.002;2023-03-02T16:18:53;10.00;58.20
46720;DHT22;32452;51.382;-0.002;2023-03-02T16:21:39;9.90;58.20
46720;DHT22;32452;51.382;-0.002;2023-03-02T16:24:25;9.80;58.20
46720;DHT22;32452;51.382;-0.002;2023-03-02T16:27:11;9.80;58.20
46720;DHT22;32452;51.382;-0.002;2023-03-02T16:29:57;9.70;58.20
46720;DHT22;32452;51.382;-0.002;2023-03-02T16:32:42;9.60;58.30
46720;DHT22;32452;51.382;-0.002;2023-03-02T16:35:29;9.60;58.60
46720;DHT22;32452;51.382;-0.002;2023-03-02T16:38:15;9.50;58.70
46720;DHT22;32452;51.382;-0.002;2023-03-02T16:41:00;9.40;58.80
46720;DHT22;32452;51.382;-0.002;2023-03-02T16:43:52;9.40;59.00
46720;DHT22;32452;51.382;-0.002;2023-03-02T16:46:38;9.40;59.20
46720;DHT22;32452;51.382;-0.002;2023-03-02T16:49:26;9.30;59.40
46720;DHT22;32452;51.382;-0.002;2023-03-02T16:52:11;9.20;59.40
46720;DHT22;32452;51.382;-0.002;2023-03-02T16:54:57;9.20;59.50
46720;DHT22;32452;51.382;-0.002;2023-03-02T16:57:42;9.20;59.50
46720;DHT22;32452;51.382;-0.002;2023-03-02T17:00:28;9.10;59.60
46720;DHT22;32452;51.382;-0.002;2023-03-02T17:03:15;9.10;59.90
46720;DHT22;32452;51.382;-0.002;2023-03-02T17:06:03;9.00;60.30
46720;DHT22;32452;51.382;-0.002;2023-03-02T17:08:50;9.00;60.80
46720;DHT22;32452;51.382;-0.002;2023-03-02T17:11:35;9.00;61.40
46720;DHT22;32452;51.382;-0.002;2023-03-02T17:14:21;8.90;61.80
46720;DHT22;32452;51.382;-0.002;2023-03-02T17:17:07;8.90;62.40
46720;DHT22;32452;51.382;-0.002;2023-03-02T17:19:52;8.80;62.70
46720;DHT22;32452;51.382;-0.002;2023-03-02T17:22:38;8.70;62.90
46720;DHT22;32452;51.382;-0.002;2023-03-02T17:25:25;8.70;63.30
46720;DHT22;32452;51.382;-0.002;2023-03-02T17:28:11;8.60;63.40
46720;DHT22;32452;51.382;-0.002;2023-03-02T17:30:59;8.60;63.70
46720;DHT22;32452;51.382;-0.002;2023-03-02T17:33:46;8.50;63.90
46720;DHT22;32452;51.382;-0.002;2023-03-02T17:36:33;8.40;64.10
46720;DHT22;32452;51.382;-0.002;2023-03-02T17:39:21;8.40;64.40
46720;DHT22;32452;51.382;-0.002;2023-03-02T17:42:06;8.30;64.60
46720;DHT22;32452;51.382;-0.002;2023-03-02T17:44:52;8.20;64.60
46720;DHT22;32452;51.382;-0.002;2023-03-02T17:47:38;8.20;64.90
46720;DHT22;32452;51.382;-0.002;2023-03-02T17:50:24;8.10;65.00
46720;DHT22;32452;51.382;-0.002;2023-03-02T17:53:10;8.00;65.20
46720;DHT22;32452;51.382;-0.002;2023-03-02T17:55:55;8.00;65.30
46720;DHT22;32452;51.382;-0.002;2023-03-02T17:58:41;7.90;65.30
46720;DHT22;32452;51.382;-0.002;2023-03-02T18:01:30;7.80;65.30
46720;DHT22;32452;51.382;-0.002;2023-03-02T18:04:16;7.80;65.50
46720;DHT22;32452;51.382;-0.002;2023-03-02T18:07:02;7.70;65.50
46720;DHT22;32452;51.382;-0.002;2023-03-02T18:09:47;7.70;65.70
46720;DHT22;32452;51.382;-0.002;2023-03-02T18:12:34;7.60;65.80
46720;DHT22;32452;51.382;-0.002;2023-03-02T18:15:19;7.60;66.00
46720;DHT22;32452;51.382;-0.002;2023-03-02T18:18:06;7.50;66.20
46720;DHT22;32452;51.382;-0.002;2023-03-02T18:20:53;7.50;66.50
46720;DHT22;32452;51.382;-0.002;2023-03-02T18:23:39;7.40;66.70
46720;DHT22;32452;51.382;-0.002;2023-03-02T18:26:26;7.40;66.90
46720;DHT22;32452;51.382;-0.002;2023-03-02T18:29:12;7.30;67.20
46720;DHT22;32452;51.382;-0.002;2023-03-02T18:31:58;7.30;67.50
46720;DHT22;32452;51.382;-0.002;2023-03-02T18:34:44;7.30;67.80
46720;DHT22;32452;51.382;-0.002;2023-03-02T18:37:29;7.20;68.00
46720;DHT22;32452;51.382;-0.002;2023-03-02T18:40:18;7.20;68.20
46720;DHT22;32452;51.382;-0.002;2023-03-02T18:43:04;7.10;68.40
46720;DHT22;32452;51.382;-0.002;2023-03-02T18:45:50;7.10;68.70
46720;DHT22;32452;51.382;-0.002;2023-03-02T18:48:35;7.00;68.80
46720;DHT22;32452;51.382;-0.002;2023-03-02T18:51:24;7.00;69.00
46720;DHT22;32452;51.382;-0.002;2023-03-02T18:54:09;7.00;69.10
46720;DHT22;32452;51.382;-0.002;2023-03-02T18:56:55;6.90;69.20
46720;DHT22;32452;51.382;-0.002;2023-03-02T18:59:41;6.90;69.50